Terminal Aerodrome Forecast
Issued by NWS Wilmington, OH

Current Version | Previous Version | Graphics & Text | Print | Product List | Glossary On
Versions: 1 2 3 4 5 6 7 8 9 10 11 12 13 14 15 16 17 18 19 20 21 22 23 24 25
000
FTUS41 KILN 091930 AAA
TAFCVG
TAF AMD
KCVG 091930Z 0920/1024 24012KT 4SM -SN OVC015
     FM092100 27012G18KT 2SM -SHSN OVC015
     FM100000 28014G24KT P6SM VCSH OVC015
     FM100300 29012G20KT P6SM BKN022
     FM101000 27008KT P6SM SCT025 BKN200
     FM101200 24006KT P6SM BKN200
     FM101500 23010KT P6SM BKN080=

USA.gov is the U.S. government's official web portal to all federal, state and local government web resources and services.